Time;durP1;ratioP1;P1;durP2;ratioP2;P2;SDS_P1;SDS_P2;PMS_P1;PMS_P2;Temp;Humidity;BMP_temperature;BMP_pressure;BME280_temperature;BME280_humidity;BME280_pressure;Samples;Min_cycle;Max_cycle;Signal;HPM_P1;HPM_P2
2023/01/17 00:02:30;;;;;;;1.00;0.90;;;;;;;-144.22;100.00;60274.75;6227503;28;20608;-44
2023/01/17 00:12:13;;;;;;;3.20;1.10;;;;;;;-144.22;100.00;60274.75;6242911;28;20238;-44
2023/01/17 00:15:18;;;;;;;1.13;0.90;;;;;;;-144.22;100.00;60274.75;6245612;28;20332;-43
2023/01/17 00:18:21;;;;;;;1.10;0.93;;;;;;;-144.22;100.00;60274.75;6245373;28;20661;-43
2023/01/17 01:33:35;;;;;;;2.80;1.70;;;;;;;-144.22;100.00;60274.75;6243130;28;20260;-43
2023/01/17 01:36:38;;;;;;;2.23;1.50;;;;;;;0.98;100.00;60274.75;6240885;28;20235;-45
2023/01/17 01:39:40;;;;;;;2.00;1.60;;;;;;;0.98;100.00;60274.75;6243908;28;20234;-43
2023/01/17 01:42:51;;;;;;;1.97;1.80;;;;;;;-144.22;100.00;60274.75;6239743;28;20333;-43
2023/01/17 01:45:56;;;;;;;2.83;1.60;;;;;;;-0.68;100.00;60274.75;6240651;28;20239;-44
2023/01/17 01:49:20;;;;;;;3.13;1.90;;;;;;;0.98;100.00;60274.75;6243814;28;20238;-43
2023/01/17 01:52:27;;;;;;;2.03;1.80;;;;;;;-144.22;100.00;60274.75;6244862;28;20242;-44
2023/01/17 01:55:36;;;;;;;1.80;1.60;;;;;;;-144.22;100.00;60274.75;6245955;28;20230;-43
2023/01/17 01:58:40;;;;;;;5.47;1.80;;;;;;;-144.22;100.00;60274.75;6247052;28;20469;-44
2023/01/17 02:01:42;;;;;;;2.73;2.10;;;;;;;-144.22;100.00;60274.75;6244985;28;20275;-43
2023/01/17 02:04:45;;;;;;;1.60;1.50;;;;;;;-0.42;100.00;60274.75;6245348;28;20238;-43
2023/01/17 02:08:02;;;;;;;1.93;1.63;;;;;;;-144.22;100.00;60274.75;6245615;28;20894;-44
2023/01/17 02:11:04;;;;;;;1.70;1.30;;;;;;;-0.30;100.00;60274.75;6247776;28;20294;-44
2023/01/17 02:14:06;;;;;;;2.20;1.80;;;;;;;-0.23;100.00;60274.75;6242885;28;20243;-45
2023/01/17 02:17:37;;;;;;;2.23;1.70;;;;;;;-0.17;100.00;60274.75;6246143;28;20269;-44
2023/01/17 02:21:07;;;;;;;2.23;1.60;;;;;;;-144.22;100.00;60274.75;6220715;28;20428;-43
2023/01/17 02:25:10;;;;;;;1.73;1.10;;;;;;;-144.22;100.00;60274.75;6238025;28;20231;-43
2023/01/17 02:28:31;;;;;;;1.20;1.10;;;;;;;-144.22;100.00;60274.75;6166694;28;20236;-44
2023/01/17 02:31:46;;;;;;;0.97;0.90;;;;;;;-144.22;100.00;60274.75;6244017;28;20325;-44
2023/01/17 02:35:19;;;;;;;0.90;0.90;;;;;;;-144.22;100.00;60274.75;6241327;28;20555;-44
2023/01/17 02:38:58;;;;;;;2.40;1.03;;;;;;;-144.22;100.00;60274.75;6247598;28;20297;-44
2023/01/17 02:42:08;;;;;;;2.23;0.90;;;;;;;-144.22;100.00;60274.75;6247915;28;20259;-44
2023/01/17 02:45:18;;;;;;;2.20;0.90;;;;;;;-144.22;100.00;60274.75;6245870;28;20282;-43
2023/01/17 02:48:25;;;;;;;1.20;0.83;;;;;;;-144.22;100.00;60274.75;6248161;28;20219;-43
2023/01/17 02:51:56;;;;;;;0.80;0.80;;;;;;;-144.22;100.00;60274.75;6248939;28;20360;-44
2023/01/17 02:55:12;;;;;;;1.30;1.00;;;;;;;-144.22;100.00;60274.75;6241342;28;20903;-43
2023/01/17 02:58:32;;;;;;;1.67;1.47;;;;;;;-144.22;100.00;60274.75;6243922;28;20321;-43
2023/01/17 03:02:06;;;;;;;2.10;1.90;;;;;;;-144.22;100.00;60274.75;6231427;28;20253;-43
2023/01/17 03:05:47;;;;;;;2.53;2.10;;;;;;;-144.22;100.00;60274.75;6244315;28;20233;-43
2023/01/17 03:08:51;;;;;;;3.17;2.60;;;;;;;-144.22;100.00;60274.75;6131555;28;20239;-44
2023/01/17 03:11:54;;;;;;;4.87;2.83;;;;;;;-144.22;100.00;60274.75;6249966;28;20234;-44
2023/01/17 03:14:57;;;;;;;5.20;3.83;;;;;;;-144.22;100.00;60274.75;6245578;28;20324;-44
2023/01/17 03:18:07;;;;;;;5.93;4.23;;;;;;;-144.22;100.00;60274.75;6247239;28;20339;-44
2023/01/17 03:21:09;;;;;;;5.87;4.27;;;;;;;-144.22;100.00;60274.75;6246838;28;20231;-44
2023/01/17 03:24:11;;;;;;;6.73;4.47;;;;;;;-144.22;100.00;60274.75;6233168;28;20555;-43
2023/01/17 03:27:13;;;;;;;4.60;4.20;;;;;;;-144.22;100.00;60274.75;6243979;28;20219;-44
2023/01/17 03:30:16;;;;;;;5.40;4.37;;;;;;;-144.22;100.00;60274.75;6233204;28;20293;-43
2023/01/17 03:33:18;;;;;;;4.17;3.77;;;;;;;-144.22;100.00;60274.75;6245864;28;20494;-44
2023/01/17 03:36:21;;;;;;;6.37;5.10;;;;;;;-144.22;100.00;60274.75;6244025;28;20261;-45
2023/01/17 03:39:24;;;;;;;5.83;4.20;;;;;;;-144.22;100.00;60274.75;6246777;28;20578;-44
2023/01/17 03:42:27;;;;;;;5.10;4.53;;;;;;;-144.22;100.00;60274.75;6245851;28;20234;-44
2023/01/17 03:45:32;;;;;;;5.97;4.53;;;;;;;-144.22;100.00;60274.75;6246065;28;20270;-45
2023/01/17 03:48:34;;;;;;;5.03;4.50;;;;;;;-144.22;100.00;60274.75;6246354;28;20230;-44
2023/01/17 03:51:36;;;;;;;7.93;5.67;;;;;;;-144.22;100.00;60274.75;6245882;28;20504;-44
2023/01/17 03:54:38;;;;;;;5.17;4.20;;;;;;;-144.22;100.00;60274.75;6246608;28;20589;-45
2023/01/17 03:57:41;;;;;;;5.93;4.93;;;;;;;-144.22;100.00;60274.75;6245452;28;20222;-45
2023/01/17 04:00:46;;;;;;;5.20;4.10;;;;;;;-144.22;100.00;60274.75;6245401;28;20458;-44
2023/01/17 04:03:48;;;;;;;6.70;3.90;;;;;;;-144.22;100.00;60274.75;6250030;28;20253;-43
2023/01/17 04:06:51;;;;;;;6.60;4.70;;;;;;;-144.22;100.00;60274.75;6245754;28;20251;-44
2023/01/17 04:09:53;;;;;;;5.43;3.87;;;;;;;-144.22;100.00;60274.75;6244091;28;20394;-44
2023/01/17 04:12:55;;;;;;;5.40;4.37;;;;;;;-144.22;100.00;60274.75;6245992;28;20817;-44
2023/01/17 04:15:57;;;;;;;5.30;4.40;;;;;;;-144.22;100.00;60274.75;6246544;28;20489;-44
2023/01/17 04:18:59;;;;;;;5.53;4.10;;;;;;;-144.22;100.00;60274.75;6245315;28;20237;-44
2023/01/17 04:22:02;;;;;;;6.83;4.47;;;;;;;-144.22;100.00;60274.75;6248272;28;20265;-44
2023/01/17 04:25:04;;;;;;;5.13;4.60;;;;;;;-144.22;100.00;60274.75;6244377;28;20322;-43
2023/01/17 04:28:07;;;;;;;5.27;4.27;;;;;;;-144.22;100.00;60274.75;6246879;28;20230;-43
2023/01/17 04:31:16;;;;;;;5.47;4.50;;;;;;;-144.22;100.00;60274.75;6245932;28;20248;-44
2023/01/17 04:34:18;;;;;;;5.00;3.97;;;;;;;-144.22;100.00;60274.75;6225108;28;20249;-43
2023/01/17 04:37:21;;;;;;;5.80;4.10;;;;;;;-144.22;100.00;60274.75;6244995;28;20230;-43
2023/01/17 04:40:23;;;;;;;4.00;3.60;;;;;;;-144.22;100.00;60274.75;6245291;28;20249;-44
2023/01/17 04:43:26;;;;;;;5.40;4.27;;;;;;;-144.22;100.00;60274.75;6244597;28;20441;-43
2023/01/17 04:46:28;;;;;;;6.67;4.23;;;;;;;-144.22;100.00;60274.75;6244334;28;20360;-43
2023/01/17 04:49:30;;;;;;;5.93;4.20;;;;;;;-0.32;100.00;60274.75;6244908;28;20269;-44
2023/01/17 04:52:32;;;;;;;7.00;4.17;;;;;;;-0.32;100.00;60274.75;6245366;28;20863;-44
2023/01/17 04:55:34;;;;;;;4.80;4.03;;;;;;;-0.33;100.00;60274.75;6245798;28;20384;-45
2023/01/17 04:58:37;;;;;;;6.13;4.33;;;;;;;-0.33;100.00;60274.75;6243400;28;20479;-44
2023/01/17 05:01:39;;;;;;;6.30;4.47;;;;;;;-0.34;100.00;60274.75;6244253;28;20250;-44
2023/01/17 05:04:42;;;;;;;5.40;4.43;;;;;;;-0.35;100.00;60274.75;6248522;28;20227;-44
2023/01/17 05:07:52;;;;;;;6.73;4.27;;;;;;;-144.22;100.00;60274.75;6245596;28;20234;-43
2023/01/17 05:10:54;;;;;;;5.00;4.10;;;;;;;-0.37;100.00;60274.75;6244373;28;20348;-44
2023/01/17 05:13:56;;;;;;;6.73;4.70;;;;;;;-0.41;100.00;60274.75;6243305;28;20235;-43
2023/01/17 05:16:59;;;;;;;6.53;4.90;;;;;;;-0.42;100.00;60274.75;6243536;28;20402;-43
2023/01/17 05:20:01;;;;;;;6.67;5.50;;;;;;;-144.22;100.00;60274.75;6241511;28;20609;-44
2023/01/17 05:23:03;;;;;;;6.97;4.63;;;;;;;-144.22;100.00;60274.75;6244653;28;20245;-43
2023/01/17 05:26:05;;;;;;;7.33;4.20;;;;;;;-144.22;100.00;60274.75;6242541;28;20328;-44
2023/01/17 05:29:08;;;;;;;6.30;4.67;;;;;;;-144.22;100.00;60274.75;6242382;28;20317;-43
2023/01/17 05:32:10;;;;;;;8.10;4.93;;;;;;;-144.22;100.00;60274.75;6243435;28;20554;-43
2023/01/17 05:35:13;;;;;;;6.63;4.27;;;;;;;-144.22;100.00;60274.75;6243331;28;21088;-43
2023/01/17 05:38:18;;;;;;;6.70;4.43;;;;;;;-144.22;100.00;60274.75;6244054;28;20687;-43
2023/01/17 05:41:20;;;;;;;6.97;5.07;;;;;;;-144.22;100.00;60274.75;6243318;28;20991;-44
2023/01/17 05:44:23;;;;;;;5.83;4.00;;;;;;;-0.48;100.00;60274.75;6245577;28;20234;-44
2023/01/17 05:47:25;;;;;;;5.50;4.20;;;;;;;-144.22;100.00;60274.75;6223975;28;20222;-43
2023/01/17 05:50:35;;;;;;;7.80;5.13;;;;;;;-144.22;100.00;60274.75;6244077;28;20789;-44
2023/01/17 05:53:38;;;;;;;4.63;4.13;;;;;;;0.98;100.00;60274.75;6242353;28;20231;-43
2023/01/17 05:56:40;;;;;;;5.53;4.70;;;;;;;0.98;100.00;60274.75;6241991;28;20231;-44
2023/01/17 05:59:42;;;;;;;5.60;4.57;;;;;;;0.98;100.00;60274.75;6246931;28;20507;-43
2023/01/17 06:02:45;;;;;;;6.73;5.37;;;;;;;-0.68;100.00;60274.75;6243409;28;20440;-43
2023/01/17 06:05:48;;;;;;;7.70;5.80;;;;;;;-144.22;100.00;60274.75;6244167;28;20367;-44
2023/01/17 06:08:54;;;;;;;7.27;5.87;;;;;;;-0.72;100.00;60274.75;6242810;28;20315;-44
2023/01/17 06:11:56;;;;;;;8.07;5.57;;;;;;;-0.75;100.00;60274.75;6243588;28;20242;-43
2023/01/17 06:14:58;;;;;;;8.03;6.33;;;;;;;-0.77;100.00;60274.75;6241670;28;20231;-43
2023/01/17 06:18:08;;;;;;;10.20;6.43;;;;;;;-0.76;100.00;60274.75;6242234;28;20329;-44
2023/01/17 06:21:11;;;;;;;6.90;5.50;;;;;;;-0.78;100.00;60274.75;6242113;28;20558;-44
2023/01/17 06:24:14;;;;;;;8.90;6.30;;;;;;;-0.80;100.00;60274.75;6223203;28;20298;-44
2023/01/17 06:27:16;;;;;;;6.30;5.10;;;;;;;-0.79;100.00;60274.75;6244412;28;20226;-44
2023/01/17 06:30:19;;;;;;;8.47;6.50;;;;;;;-0.80;100.00;60274.75;6243623;28;20263;-45
2023/01/17 06:33:22;;;;;;;7.33;5.67;;;;;;;-144.22;100.00;60274.75;6240857;28;20429;-44
2023/01/17 06:36:24;;;;;;;9.03;6.43;;;;;;;-144.22;100.00;60274.75;6240984;28;20508;-44
2023/01/17 06:39:26;;;;;;;8.87;6.20;;;;;;;-144.22;100.00;60274.75;6233205;28;20519;-44
2023/01/17 06:42:29;;;;;;;6.97;5.37;;;;;;;-144.22;100.00;60274.75;6225888;28;20303;-44
2023/01/17 06:45:33;;;;;;;6.47;5.17;;;;;;;-0.32;100.00;60274.75;6242926;28;20238;-44
2023/01/17 06:48:36;;;;;;;7.17;4.83;;;;;;;-144.22;100.00;60274.75;6245114;28;20249;-44
2023/01/17 06:51:38;;;;;;;7.07;4.87;;;;;;;188.01;100.00;60274.75;6244331;28;20291;-44
2023/01/17 06:54:40;;;;;;;6.27;4.83;;;;;;;-144.22;100.00;60274.75;6243075;28;20304;-44
2023/01/17 06:57:42;;;;;;;7.73;5.50;;;;;;;-144.22;100.00;60274.75;6241915;28;20394;-43
2023/01/17 07:00:44;;;;;;;7.37;5.17;;;;;;;-144.22;100.00;60274.75;6245181;28;20234;-44
2023/01/17 07:03:47;;;;;;;5.83;4.67;;;;;;;-144.22;100.00;60274.75;6245088;28;20234;-43
2023/01/17 07:06:49;;;;;;;8.73;5.87;;;;;;;-144.22;100.00;60274.75;6242803;28;20421;-44
2023/01/17 07:09:51;;;;;;;9.37;6.10;;;;;;;-144.22;100.00;60274.75;6245150;28;20442;-44
2023/01/17 07:12:59;;;;;;;7.93;6.10;;;;;;;-144.22;100.00;60274.75;6246048;28;20235;-43
2023/01/17 07:16:06;;;;;;;10.00;6.07;;;;;;;-144.22;100.00;60274.75;6243170;28;20231;-44
2023/01/17 07:19:08;;;;;;;8.20;6.40;;;;;;;0.98;100.00;60274.75;6243576;28;20247;-44
2023/01/17 07:22:10;;;;;;;7.20;6.13;;;;;;;-144.22;100.00;60274.75;6248111;28;20936;-43
2023/01/17 07:25:13;;;;;;;8.13;5.17;;;;;;;-144.22;100.00;60274.75;6247574;28;20699;-44
2023/01/17 07:28:15;;;;;;;8.37;4.93;;;;;;;-144.22;100.00;60274.75;6247998;28;20230;-43
2023/01/17 07:31:17;;;;;;;6.33;4.50;;;;;;;-144.22;100.00;60274.75;6252032;28;20288;-43
2023/01/17 07:34:19;;;;;;;6.43;4.17;;;;;;;-144.22;100.00;60274.75;6251196;28;20353;-44
2023/01/17 07:37:22;;;;;;;6.10;4.63;;;;;;;-144.22;100.00;60274.75;6250002;28;20266;-43
2023/01/17 07:40:24;;;;;;;5.17;3.73;;;;;;;-144.22;100.00;60274.75;6245532;28;20658;-44
2023/01/17 07:43:26;;;;;;;8.60;6.03;;;;;;;-144.22;100.00;60274.75;6246859;28;20245;-43
2023/01/17 07:46:29;;;;;;;6.10;3.87;;;;;;;-144.22;100.00;60274.75;6245990;28;20706;-44
2023/01/17 07:49:31;;;;;;;4.27;3.70;;;;;;;-144.22;100.00;60274.75;6243611;28;20234;-45
2023/01/17 07:52:33;;;;;;;4.80;3.60;;;;;;;-144.22;100.00;60274.75;6245562;28;20334;-43
2023/01/17 07:55:35;;;;;;;5.13;3.33;;;;;;;-144.22;100.00;60274.75;6247239;28;20234;-44
2023/01/17 07:58:37;;;;;;;3.83;2.50;;;;;;;-144.22;100.00;60274.75;6243583;28;20776;-43
2023/01/17 08:01:39;;;;;;;4.20;3.13;;;;;;;-0.61;100.00;60274.75;6246454;28;20511;-44
2023/01/17 08:04:42;;;;;;;4.27;3.10;;;;;;;-0.53;100.00;60274.75;6248177;28;20231;-44
2023/01/17 08:07:44;;;;;;;3.93;3.47;;;;;;;-0.43;100.00;60274.75;6243614;28;20246;-43
2023/01/17 08:10:46;;;;;;;6.27;4.10;;;;;;;-144.22;100.00;60274.75;6249284;28;20784;-43
2023/01/17 08:13:48;;;;;;;7.20;4.20;;;;;;;-144.22;100.00;60274.75;6246389;28;21031;-44
2023/01/17 08:16:50;;;;;;;5.43;4.27;;;;;;;-144.22;100.00;60274.75;6228532;28;20312;-45
2023/01/17 08:19:53;;;;;;;4.77;3.90;;;;;;;-144.22;100.00;60274.75;6246629;28;20243;-43
2023/01/17 08:22:55;;;;;;;7.80;4.53;;;;;;;-144.22;100.00;60274.75;6245402;28;20889;-45
2023/01/17 08:26:01;;;;;;;8.03;3.40;;;;;;;21.74;100.00;60274.75;6247857;28;20287;-43
2023/01/17 08:29:03;;;;;;;4.23;2.90;;;;;;;-144.22;100.00;60274.75;6240680;28;20407;-43
2023/01/17 08:32:05;;;;;;;5.80;3.67;;;;;;;-144.22;100.00;60274.75;6241412;28;20246;-43
2023/01/17 08:35:08;;;;;;;5.07;3.30;;;;;;;-144.22;100.00;60274.75;6243842;28;20664;-44
2023/01/17 08:38:11;;;;;;;4.77;2.83;;;;;;;-144.22;100.00;60274.75;6244081;28;20363;-43
2023/01/17 08:41:13;;;;;;;5.30;3.30;;;;;;;0.66;100.00;60274.75;6240946;28;20330;-43
2023/01/17 08:44:15;;;;;;;2.90;2.20;;;;;;;0.75;100.00;60274.75;6241707;28;20245;-43
2023/01/17 08:47:17;;;;;;;2.77;1.80;;;;;;;0.92;100.00;60274.75;6246459;28;20236;-43
2023/01/17 08:50:23;;;;;;;4.00;1.93;;;;;;;188.01;100.00;60274.75;6244524;28;20227;-44
2023/01/17 08:53:26;;;;;;;2.33;1.30;;;;;;;-144.22;100.00;60274.75;6241557;28;20239;-43
2023/01/17 08:56:29;;;;;;;3.67;1.30;;;;;;;-144.22;100.00;60274.75;6243721;28;20603;-44
2023/01/17 08:59:31;;;;;;;1.40;1.23;;;;;;;-144.22;100.00;60274.75;6241136;28;20235;-45
2023/01/17 09:02:33;;;;;;;1.20;1.03;;;;;;;1.97;100.00;60274.75;6243813;28;20340;-43
2023/01/17 09:05:35;;;;;;;2.40;1.00;;;;;;;2.06;100.00;60274.75;6246965;28;20764;-44
2023/01/17 09:08:38;;;;;;;1.33;1.07;;;;;;;2.10;100.00;60274.75;6244464;28;20247;-45
2023/01/17 09:11:40;;;;;;;1.40;1.03;;;;;;;-144.22;100.00;60274.75;6244337;28;20257;-44
2023/01/17 09:14:42;;;;;;;1.47;1.10;;;;;;;2.18;100.00;60274.75;6244442;28;20263;-43
2023/01/17 09:17:46;;;;;;;0.93;0.70;;;;;;;2.24;100.00;60274.75;6226353;28;20526;-43
2023/01/17 09:20:48;;;;;;;1.53;1.00;;;;;;;-144.22;100.00;60274.75;6242138;28;20467;-43
2023/01/17 09:23:51;;;;;;;2.43;0.83;;;;;;;-144.22;100.00;60274.75;6243910;28;20943;-44
2023/01/17 09:26:53;;;;;;;2.17;1.10;;;;;;;188.01;100.00;60274.75;6239992;28;20243;-43
2023/01/17 09:29:55;;;;;;;0.90;0.80;;;;;;;177.61;100.00;60274.75;6243634;28;20248;-44
2023/01/17 09:32:58;;;;;;;0.60;0.57;;;;;;;-144.22;100.00;60274.75;6243348;28;20543;-43
2023/01/17 09:36:03;;;;;;;1.03;0.83;;;;;;;188.01;100.00;60274.75;6244912;28;20655;-44
2023/01/17 09:39:07;;;;;;;1.90;1.23;;;;;;;188.01;100.00;60274.75;6248777;28;20356;-44
2023/01/17 09:42:18;;;;;;;1.43;1.07;;;;;;;177.61;100.00;60274.75;6245846;28;20363;-44
2023/01/17 09:45:20;;;;;;;1.00;0.77;;;;;;;188.01;100.00;60274.75;6243040;28;21711;-43
2023/01/17 09:48:33;;;;;;;1.47;0.90;;;;;;;188.01;100.00;60274.75;6244963;28;20893;-43
2023/01/17 09:51:35;;;;;;;1.63;1.10;;;;;;;3.45;100.00;60274.75;6240989;28;20227;-43
2023/01/17 09:54:41;;;;;;;1.57;1.10;;;;;;;-144.22;100.00;60274.75;6243382;28;20540;-43
2023/01/17 09:58:01;;;;;;;3.47;1.40;;;;;;;-144.22;100.00;60274.75;6226886;28;20547;-43
2023/01/17 10:01:06;;;;;;;1.50;1.00;;;;;;;-144.22;100.00;60274.75;6237803;28;20887;-43
2023/01/17 10:04:36;;;;;;;1.07;0.90;;;;;;;188.01;100.00;60274.75;6245634;28;20900;-43
2023/01/17 10:08:19;;;;;;;1.33;1.00;;;;;;;177.61;100.00;60274.75;6239145;28;20226;-44
2023/01/17 10:11:22;;;;;;;1.03;0.60;;;;;;;-144.22;100.00;60274.75;6243411;28;20351;-44
2023/01/17 10:14:42;;;;;;;0.63;0.60;;;;;;;-144.22;100.00;60274.75;6244399;28;20512;-44
2023/01/17 10:18:00;;;;;;;1.10;0.80;;;;;;;5.53;100.00;60274.75;6240544;28;20231;-44
2023/01/17 10:21:21;;;;;;;1.03;0.90;;;;;;;11.36;100.00;60274.75;6241470;28;20666;-45
2023/01/17 10:24:36;;;;;;;0.93;0.70;;;;;;;177.61;100.00;60274.75;6241249;28;20262;-43
2023/01/17 10:27:46;;;;;;;1.87;1.10;;;;;;;-144.22;100.00;60274.75;6241522;28;20309;-43
2023/01/17 10:30:51;;;;;;;1.63;0.90;;;;;;;11.36;100.00;60274.75;6239834;28;20236;-43
2023/01/17 10:34:04;;;;;;;1.87;0.90;;;;;;;-144.22;100.00;60274.75;6243927;28;20237;-44
2023/01/17 10:37:42;;;;;;;1.83;1.20;;;;;;;-144.22;100.00;60274.75;6239864;28;20348;-44
2023/01/17 10:40:53;;;;;;;0.93;0.80;;;;;;;6.01;100.00;60274.75;6236770;28;20249;-44
2023/01/17 10:44:12;;;;;;;1.50;1.00;;;;;;;11.36;100.00;60274.75;6239444;28;20427;-44
2023/01/17 10:47:20;;;;;;;1.27;1.00;;;;;;;6.17;100.00;60274.75;6243968;28;20229;-44
2023/01/17 10:50:25;;;;;;;1.47;0.90;;;;;;;11.36;100.00;60274.75;6241798;28;20309;-43
2023/01/17 10:53:30;;;;;;;3.33;1.00;;;;;;;177.61;100.00;60274.75;6239868;28;20237;-43
2023/01/17 10:56:35;;;;;;;0.93;0.90;;;;;;;188.01;100.00;60274.75;6243872;28;20327;-44
2023/01/17 10:59:37;;;;;;;2.83;1.00;;;;;;;6.17;100.00;60274.75;6247660;28;20237;-44
2023/01/17 11:02:46;;;;;;;3.87;1.10;;;;;;;21.74;100.00;60274.75;6248273;28;20456;-44
2023/01/17 11:06:13;;;;;;;1.77;1.00;;;;;;;177.61;100.00;60274.75;6248310;28;20284;-43
2023/01/17 11:09:15;;;;;;;1.73;0.80;;;;;;;6.17;100.00;60274.75;6248048;28;20228;-43
2023/01/17 11:12:32;;;;;;;1.90;0.67;;;;;;;5.95;100.00;60274.75;6243965;28;20957;-44
2023/01/17 11:15:38;;;;;;;1.83;0.70;;;;;;;11.36;100.00;60274.75;6244424;28;20425;-44
2023/01/17 11:18:41;;;;;;;0.90;0.80;;;;;;;6.07;100.00;60274.75;6247305;28;20237;-45
2023/01/17 11:21:52;;;;;;;1.70;1.00;;;;;;;-144.22;100.00;60274.75;6232884;28;20235;-45
2023/01/17 11:24:57;;;;;;;1.27;0.70;;;;;;;188.01;100.00;60274.75;6247823;28;20775;-45
2023/01/17 11:28:24;;;;;;;1.13;0.70;;;;;;;21.74;100.00;60274.75;6247577;28;20243;-44
2023/01/17 11:31:27;;;;;;;1.47;0.90;;;;;;;-144.22;100.00;60274.75;6235031;28;20227;-44
2023/01/17 11:34:31;;;;;;;0.97;0.77;;;;;;;-144.22;100.00;60274.75;6249413;28;20243;-44
2023/01/17 11:37:35;;;;;;;1.83;0.70;;;;;;;-144.22;100.00;60274.75;6246066;28;20238;-45
2023/01/17 11:40:42;;;;;;;0.90;0.70;;;;;;;-144.22;100.00;60274.75;6246324;28;20275;-44
2023/01/17 11:43:57;;;;;;;0.70;0.60;;;;;;;-144.22;100.00;60274.75;6246182;28;20232;-44
2023/01/17 11:47:17;;;;;;;1.87;0.70;;;;;;;-144.22;100.00;60274.75;6243909;28;20246;-44
2023/01/17 11:50:25;;;;;;;1.10;0.50;;;;;;;-144.22;100.00;60274.75;6245272;28;20381;-44
2023/01/17 11:53:37;;;;;;;3.50;0.73;;;;;;;-144.22;100.00;60274.75;6247667;28;20224;-45
2023/01/17 11:56:42;;;;;;;0.93;0.60;;;;;;;-144.22;100.00;60274.75;6241894;28;20465;-44
2023/01/17 11:59:46;;;;;;;0.77;0.70;;;;;;;-144.22;100.00;60274.75;6245702;28;20231;-43
2023/01/17 12:03:12;;;;;;;1.63;0.60;;;;;;;-144.22;100.00;60274.75;6235570;28;20227;-44
2023/01/17 12:06:18;;;;;;;1.30;0.90;;;;;;;-144.22;100.00;60274.75;6246388;28;20299;-45
2023/01/17 12:09:29;;;;;;;1.23;0.90;;;;;;;-144.22;100.00;60274.75;6244697;28;20806;-44
2023/01/17 12:16:45;;;;;;;1.03;0.87;;;;;;;-144.22;100.00;60274.75;6241961;28;20719;-43
2023/01/17 12:20:00;;;;;;;1.10;0.80;;;;;;;-144.22;100.00;60274.75;6240115;28;20673;-44
2023/01/17 12:23:15;;;;;;;2.20;1.00;;;;;;;6.13;100.00;60274.75;6243835;28;20718;-44
2023/01/17 12:26:22;;;;;;;1.43;0.93;;;;;;;6.09;100.00;60274.75;6240813;28;20331;-44
2023/01/17 12:29:30;;;;;;;1.37;1.10;;;;;;;6.09;100.00;60274.75;6246594;28;20229;-43
2023/01/17 12:32:43;;;;;;;1.37;0.90;;;;;;;6.05;100.00;60274.75;6240520;28;20327;-44
2023/01/17 12:36:07;;;;;;;2.83;0.80;;;;;;;6.17;100.00;60274.75;6240997;28;20240;-44
2023/01/17 12:39:13;;;;;;;2.07;0.93;;;;;;;6.09;100.00;60274.75;6246618;28;20940;-43
2023/01/17 12:42:23;;;;;;;1.43;1.00;;;;;;;-144.22;100.00;60274.75;6245406;28;20245;-43
2023/01/17 12:45:33;;;;;;;1.97;1.30;;;;;;;6.17;100.00;60274.75;6249454;28;20316;-44
2023/01/17 12:48:39;;;;;;;1.70;1.27;;;;;;;-144.22;100.00;60274.75;6245128;28;20245;-45
2023/01/17 12:51:45;;;;;;;1.67;1.30;;;;;;;11.36;100.00;60274.75;6249276;28;20616;-44
2023/01/17 12:54:55;;;;;;;1.93;1.47;;;;;;;6.17;100.00;60274.75;6242759;28;20260;-44
2023/01/17 12:58:01;;;;;;;2.40;1.50;;;;;;;6.17;100.00;60274.75;6227666;28;20784;-43
2023/01/17 13:01:30;;;;;;;2.20;1.63;;;;;;;21.74;100.00;60274.75;6243440;28;20553;-44
2023/01/17 13:04:45;;;;;;;3.20;1.50;;;;;;;11.36;100.00;60274.75;6239348;28;20226;-44
2023/01/17 13:08:25;;;;;;;3.33;1.60;;;;;;;-144.22;100.00;60274.75;6243495;28;20237;-44
2023/01/17 13:11:45;;;;;;;3.43;1.60;;;;;;;-144.22;100.00;60274.75;6244764;28;20229;-43
2023/01/17 13:14:48;;;;;;;2.13;1.40;;;;;;;21.74;100.00;60274.75;6239668;28;20608;-45
2023/01/17 13:17:58;;;;;;;4.40;2.00;;;;;;;11.36;100.00;60274.75;6241306;28;20381;-43
2023/01/17 13:21:19;;;;;;;2.10;1.70;;;;;;;177.61;100.00;60274.75;6241284;28;20246;-44
2023/01/17 13:24:30;;;;;;;1.53;1.20;;;;;;;6.17;100.00;60274.75;6243221;28;20229;-43
2023/01/17 13:27:45;;;;;;;2.20;1.40;;;;;;;177.61;100.00;60274.75;6223132;28;20237;-44
2023/01/17 13:31:06;;;;;;;3.07;1.70;;;;;;;188.01;100.00;60274.75;6243955;28;20227;-44
2023/01/17 13:34:29;;;;;;;1.97;1.23;;;;;;;188.01;100.00;60274.75;6243302;28;20237;-43
2023/01/17 13:37:50;;;;;;;2.77;1.57;;;;;;;-144.22;100.00;60274.75;6242240;28;20897;-44
2023/01/17 13:41:00;;;;;;;4.07;1.40;;;;;;;4.85;100.00;60274.75;6241479;28;20549;-44
2023/01/17 13:44:20;;;;;;;2.47;1.40;;;;;;;4.80;100.00;60274.75;6240712;28;20756;-44
2023/01/17 13:47:23;;;;;;;1.40;1.10;;;;;;;-144.22;100.00;60274.75;6243032;28;20382;-44
2023/01/17 13:50:34;;;;;;;2.20;1.43;;;;;;;-144.22;100.00;60274.75;6244901;28;20332;-44
2023/01/17 13:53:39;;;;;;;1.70;1.13;;;;;;;11.36;100.00;60274.75;6237721;28;20479;-44
2023/01/17 13:56:41;;;;;;;1.47;1.37;;;;;;;11.36;100.00;60274.75;6240423;28;20663;-44
2023/01/17 13:59:43;;;;;;;2.90;1.60;;;;;;;21.74;100.00;60274.75;6243788;28;20230;-44
2023/01/17 14:02:49;;;;;;;2.10;1.20;;;;;;;4.60;100.00;60274.75;6246843;28;20249;-44
2023/01/17 14:05:55;;;;;;;1.67;1.20;;;;;;;4.87;100.00;60274.75;6243471;28;20231;-44
2023/01/17 14:09:06;;;;;;;1.53;1.30;;;;;;;-144.22;100.00;60274.75;6245411;28;20301;-44
2023/01/17 14:12:13;;;;;;;1.67;1.10;;;;;;;-144.22;100.00;60274.75;6239792;28;20298;-44
2023/01/17 14:15:26;;;;;;;1.90;1.13;;;;;;;-144.22;100.00;60274.75;6244367;28;20248;-44
2023/01/17 14:18:36;;;;;;;1.43;1.07;;;;;;;177.61;100.00;60274.75;6241255;28;20228;-44
2023/01/17 14:21:38;;;;;;;1.47;1.00;;;;;;;11.36;100.00;60274.75;6230307;28;20336;-45
2023/01/17 14:25:08;;;;;;;2.23;0.97;;;;;;;-144.22;100.00;60274.75;6243073;28;20704;-44
2023/01/17 14:28:28;;;;;;;1.57;0.93;;;;;;;-144.22;100.00;60274.75;6238145;28;20231;-44
2023/01/17 14:31:31;;;;;;;1.17;1.03;;;;;;;-144.22;100.00;60274.75;6242664;28;20527;-46
2023/01/17 14:34:34;;;;;;;1.90;1.30;;;;;;;6.17;100.00;60274.75;6250362;28;20437;-44
2023/01/17 14:37:42;;;;;;;1.13;0.80;;;;;;;21.74;100.00;60274.75;6246872;28;20728;-43
2023/01/17 14:41:02;;;;;;;1.27;1.00;;;;;;;-144.22;100.00;60274.75;6248776;28;20356;-44
2023/01/17 14:44:05;;;;;;;1.03;0.90;;;;;;;-144.22;100.00;60274.75;6241084;28;20227;-44
2023/01/17 14:47:15;;;;;;;1.60;1.17;;;;;;;-144.22;100.00;60274.75;6247111;28;20557;-45
2023/01/17 14:50:22;;;;;;;1.50;1.10;;;;;;;-144.22;100.00;60274.75;6248639;28;20795;-43
2023/01/17 14:53:32;;;;;;;1.43;1.33;;;;;;;6.17;100.00;60274.75;6248633;28;20221;-44
2023/01/17 14:56:35;;;;;;;2.00;1.67;;;;;;;11.36;100.00;60274.75;6247097;28;20248;-43
2023/01/17 14:59:37;;;;;;;2.30;1.70;;;;;;;188.01;100.00;60274.75;6250236;28;20226;-44
2023/01/17 15:02:42;;;;;;;2.93;1.70;;;;;;;188.01;100.00;60274.75;6245635;28;20836;-44
2023/01/17 15:05:50;;;;;;;2.20;1.57;;;;;;;188.01;100.00;60274.75;6250320;28;20684;-44
2023/01/17 15:08:53;;;;;;;2.23;1.80;;;;;;;188.01;100.00;60274.75;6249454;28;20257;-44
2023/01/17 15:11:56;;;;;;;2.77;1.40;;;;;;;188.01;100.00;60274.75;6247199;28;20451;-43
2023/01/17 15:15:00;;;;;;;2.93;2.23;;;;;;;177.61;100.00;60274.75;6249897;28;20551;-43
2023/01/17 15:18:26;;;;;;;3.43;2.60;;;;;;;-144.22;100.00;60274.75;6247067;28;20444;-43
2023/01/17 15:21:41;;;;;;;3.83;2.73;;;;;;;-144.22;100.00;60274.75;6244074;28;20239;-44
2023/01/17 15:24:44;;;;;;;3.87;3.17;;;;;;;188.01;100.00;60274.75;6246756;28;20517;-43
2023/01/17 15:27:46;;;;;;;5.47;3.10;;;;;;;-144.22;100.00;60274.75;6237281;28;20263;-44
2023/01/17 15:31:07;;;;;;;4.43;3.33;;;;;;;-144.22;100.00;60274.75;6247685;28;20290;-43
2023/01/17 15:34:21;;;;;;;4.07;3.00;;;;;;;3.57;100.00;60274.75;6244447;28;20901;-44
2023/01/17 15:37:39;;;;;;;5.23;3.47;;;;;;;3.55;100.00;60274.75;6247820;28;20244;-43
2023/01/17 15:40:42;;;;;;;4.50;3.77;;;;;;;3.53;100.00;60274.75;6243348;28;20456;-43
2023/01/17 15:43:44;;;;;;;6.27;4.30;;;;;;;3.51;100.00;60274.75;6246193;28;20238;-44
2023/01/17 15:46:47;;;;;;;4.57;3.43;;;;;;;3.51;100.00;60274.75;6248982;28;20242;-44